Irvine, Florida
Current Conditions -  °F | °C
As of 12:50 PM on Monday 20 Oct 2014 (Local Time) from KOCF Reporting Station
Scattered Clouds Scattered Clouds  
Wind Chill: 28°   Ceiling: Unl
Heat Index: 29°   Visibility: 10mi
Dew Point: 17°   Wind: 5mph
Humidity: 51%   Direction: 110°ESE
Pressure: 30.04"   Gusts: NA
Location:  29.3919°N, 82.2811°W
Report Text: KOCF 201650Z 11004KT 10SM SCT043 28/17 A3004
Loading
Personal Weather Stations






























Interactive Weather Map
Tropical Storm Tracking
New forecast layout! Learn more

10-Day Weather Forecast

Advertisements
Track Severe Weather on mobile